sensor_id;sensor_type;location;lat;lon;timestamp;pressure;altitude;pressure_sealevel;temperature;humidity
60246;BME280;46107;53.356;-1.524;2023-05-20T00:01:15;100264.28;;;12.79;49.64
60246;BME280;46107;53.356;-1.524;2023-05-20T00:03:42;100270.03;;;12.51;50.78
60246;BME280;46107;53.356;-1.524;2023-05-20T00:06:10;100268.76;;;12.18;51.86
60246;BME280;46107;53.356;-1.524;2023-05-20T00:08:37;100268.97;;;12.59;49.68
60246;BME280;46107;53.356;-1.524;2023-05-20T00:11:05;100268.73;;;12.39;51.09
60246;BME280;46107;53.356;-1.524;2023-05-20T00:13:33;100268.56;;;11.83;52.19
60246;BME280;46107;53.356;-1.524;2023-05-20T00:16:01;100270.18;;;12.09;51.96
60246;BME280;46107;53.356;-1.524;2023-05-20T00:18:28;100268.20;;;12.31;51.24
60246;BME280;46107;53.356;-1.524;2023-05-20T00:20:55;100264.00;;;11.61;53.61
60246;BME280;46107;53.356;-1.524;2023-05-20T00:23:23;100265.88;;;11.83;52.88
60246;BME280;46107;53.356;-1.524;2023-05-20T00:25:51;100263.46;;;11.98;53.20
60246;BME280;46107;53.356;-1.524;2023-05-20T00:28:19;100261.91;;;11.82;52.34
60246;BME280;46107;53.356;-1.524;2023-05-20T00:30:46;100262.16;;;11.41;53.49
60246;BME280;46107;53.356;-1.524;2023-05-20T00:33:13;100262.01;;;11.13;53.88
60246;BME280;46107;53.356;-1.524;2023-05-20T00:35:40;100266.80;;;12.21;52.32
60246;BME280;46107;53.356;-1.524;2023-05-20T00:38:08;100262.13;;;11.26;53.06
60246;BME280;46107;53.356;-1.524;2023-05-20T00:40:35;100263.26;;;11.74;53.74
60246;BME280;46107;53.356;-1.524;2023-05-20T00:43:03;100262.63;;;12.01;52.16
60246;BME280;46107;53.356;-1.524;2023-05-20T00:45:31;100263.78;;;11.57;52.31
60246;BME280;46107;53.356;-1.524;2023-05-20T00:47:59;100265.55;;;11.37;53.22
60246;BME280;46107;53.356;-1.524;2023-05-20T00:50:27;100264.89;;;11.85;52.02
60246;BME280;46107;53.356;-1.524;2023-05-20T00:52:54;100261.91;;;11.57;52.15
60246;BME280;46107;53.356;-1.524;2023-05-20T00:55:23;100264.59;;;11.98;51.92
60246;BME280;46107;53.356;-1.524;2023-05-20T00:57:51;100267.55;;;11.43;51.87
60246;BME280;46107;53.356;-1.524;2023-05-20T01:00:19;100270.81;;;11.08;52.57
60246;BME280;46107;53.356;-1.524;2023-05-20T01:02:47;100270.15;;;11.00;53.46
60246;BME280;46107;53.356;-1.524;2023-05-20T01:05:15;100272.84;;;11.77;51.60
60246;BME280;46107;53.356;-1.524;2023-05-20T01:07:42;100279.05;;;11.87;50.95
60246;BME280;46107;53.356;-1.524;2023-05-20T01:10:11;100274.39;;;11.17;52.15
60246;BME280;46107;53.356;-1.524;2023-05-20T01:12:41;100268.06;;;11.10;51.81
60246;BME280;46107;53.356;-1.524;2023-05-20T01:15:11;100269.56;;;11.73;50.50
60246;BME280;46107;53.356;-1.524;2023-05-20T01:17:43;100264.85;;;11.94;50.70
60246;BME280;46107;53.356;-1.524;2023-05-20T01:20:13;100260.89;;;12.43;49.43
60246;BME280;46107;53.356;-1.524;2023-05-20T01:22:46;100263.35;;;11.85;49.77
60246;BME280;46107;53.356;-1.524;2023-05-20T01:25:15;100263.08;;;11.87;50.37
60246;BME280;46107;53.356;-1.524;2023-05-20T01:27:42;100261.77;;;12.02;49.76
60246;BME280;46107;53.356;-1.524;2023-05-20T01:30:10;100262.25;;;12.02;49.07
60246;BME280;46107;53.356;-1.524;2023-05-20T01:32:41;100263.70;;;12.55;48.50
60246;BME280;46107;53.356;-1.524;2023-05-20T01:35:10;100264.67;;;12.17;49.14
60246;BME280;46107;53.356;-1.524;2023-05-20T01:37:39;100263.83;;;11.79;49.30
60246;BME280;46107;53.356;-1.524;2023-05-20T01:40:08;100264.84;;;11.75;49.44
60246;BME280;46107;53.356;-1.524;2023-05-20T01:42:38;100266.91;;;12.11;48.58
60246;BME280;46107;53.356;-1.524;2023-05-20T01:45:07;100267.21;;;11.86;48.25
60246;BME280;46107;53.356;-1.524;2023-05-20T01:47:35;100266.04;;;12.16;47.85
60246;BME280;46107;53.356;-1.524;2023-05-20T01:50:03;100266.79;;;11.60;49.06
60246;BME280;46107;53.356;-1.524;2023-05-20T01:52:31;100263.20;;;11.49;49.36
60246;BME280;46107;53.356;-1.524;2023-05-20T01:54:58;100260.61;;;11.06;49.86
60246;BME280;46107;53.356;-1.524;2023-05-20T01:57:27;100258.66;;;11.63;49.44
60246;BME280;46107;53.356;-1.524;2023-05-20T01:59:54;100261.21;;;11.76;49.25
60246;BME280;46107;53.356;-1.524;2023-05-20T02:02:22;100261.61;;;11.99;48.56
60246;BME280;46107;53.356;-1.524;2023-05-20T02:04:50;100263.90;;;11.89;49.14
60246;BME280;46107;53.356;-1.524;2023-05-20T02:07:18;100259.71;;;11.46;50.21
60246;BME280;46107;53.356;-1.524;2023-05-20T02:09:46;100264.98;;;10.81;50.99
60246;BME280;46107;53.356;-1.524;2023-05-20T02:12:14;100262.11;;;10.92;51.05
60246;BME280;46107;53.356;-1.524;2023-05-20T02:14:41;100263.11;;;10.82;51.12
60246;BME280;46107;53.356;-1.524;2023-05-20T02:17:08;100264.55;;;10.88;50.32
60246;BME280;46107;53.356;-1.524;2023-05-20T02:19:35;100261.38;;;10.58;51.35
60246;BME280;46107;53.356;-1.524;2023-05-20T02:22:04;100258.74;;;10.70;50.61
60246;BME280;46107;53.356;-1.524;2023-05-20T02:24:32;100261.64;;;10.16;51.98
60246;BME280;46107;53.356;-1.524;2023-05-20T02:27:00;100255.48;;;10.65;50.95
60246;BME280;46107;53.356;-1.524;2023-05-20T02:29:28;100254.81;;;11.00;50.58
60246;BME280;46107;53.356;-1.524;2023-05-20T02:31:56;100255.79;;;10.35;51.50
60246;BME280;46107;53.356;-1.524;2023-05-20T02:34:24;100254.11;;;10.58;52.72
60246;BME280;46107;53.356;-1.524;2023-05-20T02:36:51;100252.80;;;10.26;52.96
60246;BME280;46107;53.356;-1.524;2023-05-20T02:39:19;100252.93;;;9.75;55.29
60246;BME280;46107;53.356;-1.524;2023-05-20T02:41:47;100255.07;;;10.61;53.28
60246;BME280;46107;53.356;-1.524;2023-05-20T02:44:15;100253.26;;;10.45;53.94
60246;BME280;46107;53.356;-1.524;2023-05-20T02:46:42;100253.91;;;10.39;53.96
60246;BME280;46107;53.356;-1.524;2023-05-20T02:49:10;100253.85;;;10.43;54.55
60246;BME280;46107;53.356;-1.524;2023-05-20T02:51:39;100251.29;;;10.20;54.56
60246;BME280;46107;53.356;-1.524;2023-05-20T02:54:07;100250.81;;;9.79;54.72
60246;BME280;46107;53.356;-1.524;2023-05-20T02:56:35;100248.19;;;10.00;55.95
60246;BME280;46107;53.356;-1.524;2023-05-20T02:59:03;100246.47;;;10.09;54.70
60246;BME280;46107;53.356;-1.524;2023-05-20T03:01:30;100245.27;;;10.02;55.05
60246;BME280;46107;53.356;-1.524;2023-05-20T03:03:58;100244.51;;;9.97;54.95
60246;BME280;46107;53.356;-1.524;2023-05-20T03:06:25;100243.30;;;10.31;54.61
60246;BME280;46107;53.356;-1.524;2023-05-20T03:08:53;100240.66;;;9.99;53.70
60246;BME280;46107;53.356;-1.524;2023-05-20T03:11:21;100242.59;;;10.22;53.50
60246;BME280;46107;53.356;-1.524;2023-05-20T03:13:49;100239.58;;;10.38;53.08
60246;BME280;46107;53.356;-1.524;2023-05-20T03:16:17;100236.85;;;10.26;52.46
60246;BME280;46107;53.356;-1.524;2023-05-20T03:18:44;100230.87;;;10.59;52.79
60246;BME280;46107;53.356;-1.524;2023-05-20T03:21:13;100231.48;;;10.09;52.84
60246;BME280;46107;53.356;-1.524;2023-05-20T03:23:40;100233.71;;;9.98;53.28
60246;BME280;46107;53.356;-1.524;2023-05-20T03:26:08;100234.58;;;10.09;53.94
60246;BME280;46107;53.356;-1.524;2023-05-20T03:28:35;100233.63;;;10.64;53.43
60246;BME280;46107;53.356;-1.524;2023-05-20T03:31:03;100234.12;;;10.24;53.84
60246;BME280;46107;53.356;-1.524;2023-05-20T03:33:33;100237.08;;;10.29;53.69
60246;BME280;46107;53.356;-1.524;2023-05-20T03:36:01;100237.27;;;9.88;53.00
60246;BME280;46107;53.356;-1.524;2023-05-20T03:38:29;100235.27;;;9.89;53.03
60246;BME280;46107;53.356;-1.524;2023-05-20T03:40:56;100232.73;;;10.00;52.24
60246;BME280;46107;53.356;-1.524;2023-05-20T03:43:24;100237.26;;;10.05;53.03
60246;BME280;46107;53.356;-1.524;2023-05-20T03:45:52;100236.87;;;9.63;53.76
60246;BME280;46107;53.356;-1.524;2023-05-20T03:48:19;100239.28;;;9.65;54.53
60246;BME280;46107;53.356;-1.524;2023-05-20T03:50:48;100239.45;;;9.91;54.32
60246;BME280;46107;53.356;-1.524;2023-05-20T03:53:16;100240.18;;;9.76;54.02
60246;BME280;46107;53.356;-1.524;2023-05-20T03:55:43;100241.71;;;9.62;55.70
60246;BME280;46107;53.356;-1.524;2023-05-20T03:58:10;100239.17;;;10.34;54.06
60246;BME280;46107;53.356;-1.524;2023-05-20T04:00:38;100235.61;;;10.85;53.20
60246;BME280;46107;53.356;-1.524;2023-05-20T04:03:05;100236.92;;;10.93;53.11
60246;BME280;46107;53.356;-1.524;2023-05-20T04:05:35;100239.67;;;10.43;53.69
60246;BME280;46107;53.356;-1.524;2023-05-20T04:08:03;100236.56;;;10.31;54.98
60246;BME280;46107;53.356;-1.524;2023-05-20T04:10:31;100234.20;;;10.11;55.10
60246;BME280;46107;53.356;-1.524;2023-05-20T04:12:59;100236.50;;;10.16;56.64
60246;BME280;46107;53.356;-1.524;2023-05-20T04:15:26;100237.60;;;10.55;56.07
60246;BME280;46107;53.356;-1.524;2023-05-20T04:17:54;100239.64;;;10.51;55.72
60246;BME280;46107;53.356;-1.524;2023-05-20T04:20:22;100236.45;;;10.13;55.92
60246;BME280;46107;53.356;-1.524;2023-05-20T04:22:50;100237.14;;;9.78;56.71
60246;BME280;46107;53.356;-1.524;2023-05-20T04:25:17;100236.76;;;10.25;56.22
60246;BME280;46107;53.356;-1.524;2023-05-20T04:27:45;100238.37;;;10.71;55.69
60246;BME280;46107;53.356;-1.524;2023-05-20T04:30:12;100239.35;;;9.56;58.43
60246;BME280;46107;53.356;-1.524;2023-05-20T04:32:40;100240.28;;;9.94;59.44
60246;BME280;46107;53.356;-1.524;2023-05-20T04:35:08;100241.27;;;10.01;58.46
60246;BME280;46107;53.356;-1.524;2023-05-20T04:37:35;100236.55;;;10.08;58.20
60246;BME280;46107;53.356;-1.524;2023-05-20T04:40:04;100236.71;;;9.61;58.96
60246;BME280;46107;53.356;-1.524;2023-05-20T04:42:32;100231.63;;;9.62;58.92
60246;BME280;46107;53.356;-1.524;2023-05-20T04:44:59;100229.18;;;10.01;58.68
60246;BME280;46107;53.356;-1.524;2023-05-20T04:47:27;100231.26;;;10.62;56.94
60246;BME280;46107;53.356;-1.524;2023-05-20T04:49:55;100236.28;;;10.39;56.90
60246;BME280;46107;53.356;-1.524;2023-05-20T04:52:23;100233.83;;;9.82;57.94
60246;BME280;46107;53.356;-1.524;2023-05-20T04:54:51;100231.21;;;9.84;58.38
60246;BME280;46107;53.356;-1.524;2023-05-20T04:57:19;100229.93;;;10.23;57.12
60246;BME280;46107;53.356;-1.524;2023-05-20T04:59:46;100232.66;;;10.23;58.00
60246;BME280;46107;53.356;-1.524;2023-05-20T05:02:14;100234.98;;;9.46;60.09
60246;BME280;46107;53.356;-1.524;2023-05-20T05:04:41;100232.57;;;9.63;58.74
60246;BME280;46107;53.356;-1.524;2023-05-20T05:07:09;100231.89;;;9.51;59.52
60246;BME280;46107;53.356;-1.524;2023-05-20T05:09:36;100226.63;;;10.60;56.22
60246;BME280;46107;53.356;-1.524;2023-05-20T05:12:05;100230.72;;;10.36;56.95
60246;BME280;46107;53.356;-1.524;2023-05-20T05:14:32;100229.58;;;10.11;58.49
60246;BME280;46107;53.356;-1.524;2023-05-20T05:17:00;100228.97;;;9.81;57.62
60246;BME280;46107;53.356;-1.524;2023-05-20T05:19:28;100228.78;;;10.96;55.38
60246;BME280;46107;53.356;-1.524;2023-05-20T05:21:55;100230.91;;;10.07;57.09
60246;BME280;46107;53.356;-1.524;2023-05-20T05:24:23;100231.06;;;10.10;57.27
60246;BME280;46107;53.356;-1.524;2023-05-20T05:26:53;100226.46;;;10.65;56.86
60246;BME280;46107;53.356;-1.524;2023-05-20T05:29:20;100227.05;;;10.53;56.51
60246;BME280;46107;53.356;-1.524;2023-05-20T05:31:47;100233.55;;;9.53;58.60
60246;BME280;46107;53.356;-1.524;2023-05-20T05:34:14;100229.50;;;8.44;60.81
60246;BME280;46107;53.356;-1.524;2023-05-20T05:36:42;100229.36;;;10.74;58.08
60246;BME280;46107;53.356;-1.524;2023-05-20T05:39:09;100233.11;;;10.02;57.78
60246;BME280;46107;53.356;-1.524;2023-05-20T05:41:36;100233.96;;;9.84;58.54
60246;BME280;46107;53.356;-1.524;2023-05-20T05:44:04;100233.61;;;9.89;58.87
60246;BME280;46107;53.356;-1.524;2023-05-20T05:46:32;100239.25;;;9.77;59.57
60246;BME280;46107;53.356;-1.524;2023-05-20T05:49:00;100236.23;;;9.58;61.70
60246;BME280;46107;53.356;-1.524;2023-05-20T05:51:28;100234.65;;;10.08;57.84
60246;BME280;46107;53.356;-1.524;2023-05-20T05:53:56;100233.85;;;10.20;58.09
60246;BME280;46107;53.356;-1.524;2023-05-20T05:56:24;100234.42;;;9.83;59.18
60246;BME280;46107;53.356;-1.524;2023-05-20T05:58:52;100237.86;;;10.31;58.78
60246;BME280;46107;53.356;-1.524;2023-05-20T06:01:19;100242.48;;;10.26;58.45
60246;BME280;46107;53.356;-1.524;2023-05-20T06:03:48;100238.62;;;10.69;55.83
60246;BME280;46107;53.356;-1.524;2023-05-20T06:06:16;100243.12;;;9.84;59.34
60246;BME280;46107;53.356;-1.524;2023-05-20T06:08:43;100241.53;;;9.55;60.93
60246;BME280;46107;53.356;-1.524;2023-05-20T06:11:10;100239.15;;;9.53;59.40
60246;BME280;46107;53.356;-1.524;2023-05-20T06:13:38;100239.06;;;9.62;59.46
60246;BME280;46107;53.356;-1.524;2023-05-20T06:16:05;100237.32;;;9.83;59.00
60246;BME280;46107;53.356;-1.524;2023-05-20T06:18:33;100236.86;;;9.08;59.81
60246;BME280;46107;53.356;-1.524;2023-05-20T06:21:00;100239.85;;;10.44;57.28
60246;BME280;46107;53.356;-1.524;2023-05-20T06:23:27;100240.10;;;9.28;62.54
60246;BME280;46107;53.356;-1.524;2023-05-20T06:25:57;100238.25;;;8.69;63.32
60246;BME280;46107;53.356;-1.524;2023-05-20T06:28:26;100239.16;;;9.06;60.39
60246;BME280;46107;53.356;-1.524;2023-05-20T06:30:54;100236.54;;;9.53;60.57
60246;BME280;46107;53.356;-1.524;2023-05-20T06:33:23;100237.73;;;9.33;60.52
60246;BME280;46107;53.356;-1.524;2023-05-20T06:35:50;100239.39;;;9.57;60.91
60246;BME280;46107;53.356;-1.524;2023-05-20T06:38:18;100240.53;;;10.38;58.68
60246;BME280;46107;53.356;-1.524;2023-05-20T06:40:47;100238.46;;;9.63;59.83
60246;BME280;46107;53.356;-1.524;2023-05-20T06:43:16;100240.12;;;10.06;59.50
60246;BME280;46107;53.356;-1.524;2023-05-20T06:45:43;100237.16;;;10.23;58.59
60246;BME280;46107;53.356;-1.524;2023-05-20T06:48:11;100236.19;;;8.52;64.10
60246;BME280;46107;53.356;-1.524;2023-05-20T06:50:38;100233.90;;;10.26;58.13
60246;BME280;46107;53.356;-1.524;2023-05-20T06:53:05;100234.17;;;9.71;60.34
60246;BME280;46107;53.356;-1.524;2023-05-20T06:55:34;100232.99;;;11.25;57.43
60246;BME280;46107;53.356;-1.524;2023-05-20T06:58:02;100231.81;;;10.80;57.13
60246;BME280;46107;53.356;-1.524;2023-05-20T07:00:30;100226.82;;;10.64;58.47
60246;BME280;46107;53.356;-1.524;2023-05-20T07:02:58;100222.76;;;11.37;56.97
60246;BME280;46107;53.356;-1.524;2023-05-20T07:05:26;100223.82;;;11.80;54.07
60246;BME280;46107;53.356;-1.524;2023-05-20T07:07:53;100222.50;;;10.02;58.90
60246;BME280;46107;53.356;-1.524;2023-05-20T07:10:21;100225.89;;;11.91;55.60
60246;BME280;46107;53.356;-1.524;2023-05-20T07:12:48;100226.72;;;11.28;55.27
60246;BME280;46107;53.356;-1.524;2023-05-20T07:15:15;100226.53;;;11.82;53.77
60246;BME280;46107;53.356;-1.524;2023-05-20T07:17:43;100219.02;;;11.29;53.10
60246;BME280;46107;53.356;-1.524;2023-05-20T07:20:11;100220.95;;;11.62;53.26
60246;BME280;46107;53.356;-1.524;2023-05-20T07:22:38;100220.44;;;11.84;51.29
60246;BME280;46107;53.356;-1.524;2023-05-20T07:25:06;100219.04;;;12.30;53.19
60246;BME280;46107;53.356;-1.524;2023-05-20T07:27:34;100222.73;;;11.84;51.98
60246;BME280;46107;53.356;-1.524;2023-05-20T07:30:03;100223.10;;;12.26;52.92
60246;BME280;46107;53.356;-1.524;2023-05-20T07:32:30;100221.48;;;12.09;50.66
60246;BME280;46107;53.356;-1.524;2023-05-20T07:34:57;100225.65;;;12.20;51.22
60246;BME280;46107;53.356;-1.524;2023-05-20T07:37:25;100228.53;;;12.11;49.20
60246;BME280;46107;53.356;-1.524;2023-05-20T07:39:52;100227.13;;;11.23;51.68
60246;BME280;46107;53.356;-1.524;2023-05-20T07:42:20;100230.36;;;11.17;54.00
60246;BME280;46107;53.356;-1.524;2023-05-20T07:44:48;100228.75;;;11.92;52.50
60246;BME280;46107;53.356;-1.524;2023-05-20T07:47:15;100228.61;;;11.06;53.33
60246;BME280;46107;53.356;-1.524;2023-05-20T07:49:43;100229.76;;;12.00;52.73
60246;BME280;46107;53.356;-1.524;2023-05-20T07:52:11;100222.65;;;12.47;52.39
60246;BME280;46107;53.356;-1.524;2023-05-20T07:54:39;100223.47;;;12.72;51.02
60246;BME280;46107;53.356;-1.524;2023-05-20T07:57:07;100221.48;;;12.68;50.08
60246;BME280;46107;53.356;-1.524;2023-05-20T07:59:35;100222.35;;;12.45;51.36
60246;BME280;46107;53.356;-1.524;2023-05-20T08:02:02;100226.75;;;12.69;49.85
60246;BME280;46107;53.356;-1.524;2023-05-20T08:04:30;100223.72;;;12.65;49.71
60246;BME280;46107;53.356;-1.524;2023-05-20T08:06:58;100223.39;;;10.11;54.01
60246;BME280;46107;53.356;-1.524;2023-05-20T08:09:26;100220.33;;;12.35;49.03
60246;BME280;46107;53.356;-1.524;2023-05-20T08:11:53;100216.81;;;13.20;50.09
60246;BME280;46107;53.356;-1.524;2023-05-20T08:14:21;100217.15;;;12.79;49.87
60246;BME280;46107;53.356;-1.524;2023-05-20T08:16:49;100210.58;;;13.72;49.13
60246;BME280;46107;53.356;-1.524;2023-05-20T08:19:17;100215.03;;;14.04;48.59
60246;BME280;46107;53.356;-1.524;2023-05-20T08:21:45;100212.37;;;14.17;45.50
60246;BME280;46107;53.356;-1.524;2023-05-20T08:24:12;100210.68;;;13.98;45.73
60246;BME280;46107;53.356;-1.524;2023-05-20T08:26:40;100211.55;;;14.94;47.30
60246;BME280;46107;53.356;-1.524;2023-05-20T08:29:08;100210.54;;;13.50;46.65
60246;BME280;46107;53.356;-1.524;2023-05-20T08:31:35;100204.88;;;14.13;47.49
60246;BME280;46107;53.356;-1.524;2023-05-20T08:34:03;100210.69;;;13.77;46.57
60246;BME280;46107;53.356;-1.524;2023-05-20T08:36:30;100208.32;;;15.50;45.60
60246;BME280;46107;53.356;-1.524;2023-05-20T08:38:58;100210.10;;;14.18;44.05
60246;BME280;46107;53.356;-1.524;2023-05-20T08:41:25;100219.25;;;14.60;43.76
60246;BME280;46107;53.356;-1.524;2023-05-20T08:43:53;100216.73;;;13.90;43.76
60246;BME280;46107;53.356;-1.524;2023-05-20T08:46:22;100217.46;;;14.63;44.03
60246;BME280;46107;53.356;-1.524;2023-05-20T08:48:51;100214.24;;;14.65;42.99
60246;BME280;46107;53.356;-1.524;2023-05-20T08:51:20;100207.78;;;14.83;41.25
60246;BME280;46107;53.356;-1.524;2023-05-20T08:53:47;100212.05;;;14.46;43.43
60246;BME280;46107;53.356;-1.524;2023-05-20T08:56:15;100209.84;;;12.98;43.63
60246;BME280;46107;53.356;-1.524;2023-05-20T08:58:44;100211.17;;;13.68;44.83
60246;BME280;46107;53.356;-1.524;2023-05-20T09:01:11;100209.47;;;14.53;44.30
60246;BME280;46107;53.356;-1.524;2023-05-20T09:03:39;100211.27;;;13.32;42.64
60246;BME280;46107;53.356;-1.524;2023-05-20T09:06:08;100207.95;;;13.49;46.29
60246;BME280;46107;53.356;-1.524;2023-05-20T09:08:36;100210.25;;;13.91;46.60
60246;BME280;46107;53.356;-1.524;2023-05-20T09:11:04;100205.22;;;14.57;44.09
60246;BME280;46107;53.356;-1.524;2023-05-20T09:13:31;100207.91;;;15.74;41.77
60246;BME280;46107;53.356;-1.524;2023-05-20T09:15:59;100205.62;;;14.97;40.13
60246;BME280;46107;53.356;-1.524;2023-05-20T09:18:27;100209.06;;;15.90;43.19
60246;BME280;46107;53.356;-1.524;2023-05-20T09:20:55;100205.75;;;14.59;40.52
60246;BME280;46107;53.356;-1.524;2023-05-20T09:23:22;100204.47;;;14.16;39.39
60246;BME280;46107;53.356;-1.524;2023-05-20T09:25:51;100204.08;;;14.73;40.75
60246;BME280;46107;53.356;-1.524;2023-05-20T09:28:21;100201.64;;;13.89;43.77
60246;BME280;46107;53.356;-1.524;2023-05-20T09:30:49;100192.58;;;15.22;43.04
60246;BME280;46107;53.356;-1.524;2023-05-20T09:33:17;100193.76;;;15.67;39.95
60246;BME280;46107;53.356;-1.524;2023-05-20T09:35:45;100193.75;;;15.24;39.79
60246;BME280;46107;53.356;-1.524;2023-05-20T09:38:13;100195.90;;;14.80;41.64
60246;BME280;46107;53.356;-1.524;2023-05-20T09:40:43;100191.69;;;14.78;41.81
60246;BME280;46107;53.356;-1.524;2023-05-20T09:43:12;100190.21;;;14.88;42.10
60246;BME280;46107;53.356;-1.524;2023-05-20T09:45:40;100193.52;;;15.36;41.25
60246;BME280;46107;53.356;-1.524;2023-05-20T09:48:09;100188.99;;;15.16;40.28
60246;BME280;46107;53.356;-1.524;2023-05-20T09:50:37;100179.44;;;14.14;43.01
60246;BME280;46107;53.356;-1.524;2023-05-20T09:53:06;100179.67;;;15.61;38.96
60246;BME280;46107;53.356;-1.524;2023-05-20T09:55:35;100181.57;;;15.17;42.33
60246;BME280;46107;53.356;-1.524;2023-05-20T09:58:03;100175.27;;;15.56;38.20
60246;BME280;46107;53.356;-1.524;2023-05-20T10:00:31;100177.35;;;15.03;42.34
60246;BME280;46107;53.356;-1.524;2023-05-20T10:03:00;100177.17;;;16.14;40.06
60246;BME280;46107;53.356;-1.524;2023-05-20T10:05:29;100175.84;;;13.51;43.31
60246;BME280;46107;53.356;-1.524;2023-05-20T10:08:26;100176.50;;;14.77;43.72
60246;BME280;46107;53.356;-1.524;2023-05-20T10:11:04;100175.27;;;14.02;44.49
60246;BME280;46107;53.356;-1.524;2023-05-20T10:13:49;100168.41;;;14.61;41.35
60246;BME280;46107;53.356;-1.524;2023-05-20T10:16:28;100168.75;;;16.14;45.32
60246;BME280;46107;53.356;-1.524;2023-05-20T10:19:04;100174.32;;;15.90;39.25
60246;BME280;46107;53.356;-1.524;2023-05-20T10:21:33;100170.63;;;14.87;41.24
60246;BME280;46107;53.356;-1.524;2023-05-20T10:24:05;100163.42;;;13.72;41.82
60246;BME280;46107;53.356;-1.524;2023-05-20T10:26:35;100157.92;;;15.31;40.00
60246;BME280;46107;53.356;-1.524;2023-05-20T10:29:14;100157.77;;;16.12;40.51
60246;BME280;46107;53.356;-1.524;2023-05-20T10:31:48;100157.39;;;15.26;39.70
60246;BME280;46107;53.356;-1.524;2023-05-20T10:34:18;100154.58;;;16.42;42.42
60246;BME280;46107;53.356;-1.524;2023-05-20T10:36:56;100150.82;;;14.88;38.23
60246;BME280;46107;53.356;-1.524;2023-05-20T10:39:26;100152.94;;;15.16;38.91
60246;BME280;46107;53.356;-1.524;2023-05-20T10:42:05;100142.07;;;14.39;42.38
60246;BME280;46107;53.356;-1.524;2023-05-20T10:44:41;100136.98;;;15.64;39.09
60246;BME280;46107;53.356;-1.524;2023-05-20T10:47:10;100136.46;;;15.50;41.63
60246;BME280;46107;53.356;-1.524;2023-05-20T10:49:40;100136.93;;;15.96;37.69
60246;BME280;46107;53.356;-1.524;2023-05-20T10:52:10;100137.90;;;15.74;40.62
60246;BME280;46107;53.356;-1.524;2023-05-20T10:54:43;100138.12;;;15.60;41.77
60246;BME280;46107;53.356;-1.524;2023-05-20T10:57:11;100135.20;;;15.84;39.14
60246;BME280;46107;53.356;-1.524;2023-05-20T10:59:40;100136.42;;;15.62;38.92
60246;BME280;46107;53.356;-1.524;2023-05-20T11:02:10;100133.41;;;14.28;42.81
60246;BME280;46107;53.356;-1.524;2023-05-20T11:04:38;100130.06;;;15.92;38.64
60246;BME280;46107;53.356;-1.524;2023-05-20T11:07:09;100124.95;;;14.47;41.66
60246;BME280;46107;53.356;-1.524;2023-05-20T11:09:37;100128.54;;;15.53;39.12
60246;BME280;46107;53.356;-1.524;2023-05-20T11:12:05;100122.70;;;15.95;43.99
60246;BME280;46107;53.356;-1.524;2023-05-20T11:14:33;100113.08;;;16.01;40.72
60246;BME280;46107;53.356;-1.524;2023-05-20T11:17:01;100109.64;;;16.46;36.73
60246;BME280;46107;53.356;-1.524;2023-05-20T11:19:29;100120.73;;;15.11;39.67
60246;BME280;46107;53.356;-1.524;2023-05-20T11:21:57;100118.32;;;15.55;41.51
60246;BME280;46107;53.356;-1.524;2023-05-20T11:24:26;100112.55;;;16.21;43.89
60246;BME280;46107;53.356;-1.524;2023-05-20T11:26:54;100114.91;;;15.05;41.27
60246;BME280;46107;53.356;-1.524;2023-05-20T11:29:22;100103.75;;;16.62;40.10
60246;BME280;46107;53.356;-1.524;2023-05-20T11:31:49;100106.47;;;16.20;38.20
60246;BME280;46107;53.356;-1.524;2023-05-20T11:34:19;100105.91;;;16.29;40.00
60246;BME280;46107;53.356;-1.524;2023-05-20T11:36:54;100105.46;;;16.46;39.65
60246;BME280;46107;53.356;-1.524;2023-05-20T11:39:22;100097.38;;;16.10;42.63
60246;BME280;46107;53.356;-1.524;2023-05-20T11:41:50;100094.15;;;15.75;40.89
60246;BME280;46107;53.356;-1.524;2023-05-20T11:44:24;100092.40;;;16.95;43.05
60246;BME280;46107;53.356;-1.524;2023-05-20T11:46:57;100089.72;;;15.98;40.30
60246;BME280;46107;53.356;-1.524;2023-05-20T11:49:26;100086.45;;;16.84;41.30
60246;BME280;46107;53.356;-1.524;2023-05-20T11:51:54;100091.70;;;16.21;40.00
60246;BME280;46107;53.356;-1.524;2023-05-20T11:54:23;100087.92;;;16.40;40.77
60246;BME280;46107;53.356;-1.524;2023-05-20T11:56:52;100088.08;;;16.69;41.53
60246;BME280;46107;53.356;-1.524;2023-05-20T11:59:23;100085.98;;;15.24;41.37
60246;BME280;46107;53.356;-1.524;2023-05-20T12:01:50;100070.50;;;16.51;39.48
60246;BME280;46107;53.356;-1.524;2023-05-20T12:04:17;100072.75;;;16.84;39.67
60246;BME280;46107;53.356;-1.524;2023-05-20T12:06:45;100069.50;;;16.51;38.68
60246;BME280;46107;53.356;-1.524;2023-05-20T12:09:13;100077.87;;;16.38;40.91
60246;BME280;46107;53.356;-1.524;2023-05-20T12:11:41;100075.14;;;16.49;39.65
60246;BME280;46107;53.356;-1.524;2023-05-20T12:14:09;100074.72;;;16.60;39.87
60246;BME280;46107;53.356;-1.524;2023-05-20T12:16:37;100067.83;;;16.53;41.37
60246;BME280;46107;53.356;-1.524;2023-05-20T12:19:05;100073.77;;;16.80;39.61
60246;BME280;46107;53.356;-1.524;2023-05-20T12:21:33;100073.64;;;14.96;44.26
60246;BME280;46107;53.356;-1.524;2023-05-20T12:24:01;100062.23;;;16.69;42.84
60246;BME280;46107;53.356;-1.524;2023-05-20T12:26:29;100061.03;;;16.78;42.40
60246;BME280;46107;53.356;-1.524;2023-05-20T12:28:57;100062.87;;;14.31;46.23
60246;BME280;46107;53.356;-1.524;2023-05-20T12:31:25;100057.41;;;15.64;43.59
60246;BME280;46107;53.356;-1.524;2023-05-20T12:33:52;100047.59;;;14.74;43.07
60246;BME280;46107;53.356;-1.524;2023-05-20T12:36:20;100042.54;;;16.34;43.51
60246;BME280;46107;53.356;-1.524;2023-05-20T12:38:48;100053.47;;;16.25;43.56
60246;BME280;46107;53.356;-1.524;2023-05-20T12:41:16;100049.45;;;16.94;42.04
60246;BME280;46107;53.356;-1.524;2023-05-20T12:43:43;100045.99;;;16.44;38.49
60246;BME280;46107;53.356;-1.524;2023-05-20T12:46:11;100044.03;;;17.07;39.86